ADDS METAR Data INFO
IDs: Format: Raw Decoded Include TAF

Data at: 1913 UTC 23 Apr 2018

KBJC 231847Z 06008KT 30SM SCT120 BKN200 18/04 A3005
KBJC 231747Z 07006KT 30SM SCT120 BKN200 16/04 A3008
KBJC 231645Z 00000KT 15SM SCT200 BKN250 14/03 A3009
KBJC 231547Z 36005KT 15SM SCT200 BKN250 12/05 A3010
KBJC 231445Z 00000KT 15SM FEW100 SCT200 BKN250 10/04 A3010
KBJC 231347Z 00000KT 12SM FEW100 SCT200 BKN250 08/04 A3011
KBJC 231247Z 33005KT 15SM FEW120 SCT200 06/03 A3010
KBJC 231158Z AUTO 33006KT 10SM CLR 06/03 A3009 RMK AO2
KBJC 231153Z AUTO 32006KT 10SM CLR 05/03 A3009 RMK AO2
KBJC 231145Z 36006KT 15SM FEW150 06/03 A3009
KBJC 231135Z AUTO 33007KT 10SM CLR 05/03 A3009 RMK AO2
KBJC 231112Z AUTO 32005KT 10SM CLR 05/03 A3009 RMK AO2
KBJC 231054Z AUTO 29003KT 10SM CLR 05/02 A3010 RMK AO2
KBJC 231030Z AUTO 32004KT 10SM CLR 05/02 A3009 RMK AO2
KBJC 231012Z AUTO 00000KT 10SM CLR 06/02 A3009 RMK AO2
KBJC 230953Z AUTO 00000KT 10SM CLR 06/02 A3010 RMK AO2
KBJC 230935Z AUTO 35005KT 10SM CLR 06/02 A3010 RMK AO2
KBJC 230912Z AUTO 36005KT 10SM CLR 07/01 A3010 RMK AO2
KBJC 230852Z AUTO 00000KT 10SM CLR 08/01 A3010 RMK AO2
KBJC 230835Z AUTO 00000KT 10SM CLR 07/01 A3011 RMK AO2
KBJC 230812Z AUTO 00000KT 10SM CLR 07/01 A3010 RMK AO2
KBJC 230752Z AUTO 00000KT 10SM CLR 07/01 A3011 RMK AO2
KBJC 230734Z AUTO 00000KT 10SM CLR 09/01 A3011 RMK AO2
KBJC 230711Z AUTO 32007KT 10SM CLR 10/01 A3011 RMK AO2
KBJC 230654Z AUTO 32006KT 10SM CLR 10/00 A3011 RMK AO2
KBJC 230630Z AUTO 32003KT 10SM CLR 11/00 A3012 RMK AO2
KBJC 230612Z AUTO 00000KT 10SM CLR 11/00 A3012 RMK AO2
KBJC 230553Z AUTO 31003KT 10SM CLR 11/00 A3012 RMK AO2
KBJC 230535Z AUTO 29004KT 10SM CLR 10/00 A3013 RMK AO2
KBJC 230511Z AUTO 00000KT 10SM CLR 10/00 A3013 RMK AO2
KBJC 230453Z AUTO 00000KT 10SM CLR 11/00 A3014 RMK AO2
KBJC 230435Z AUTO 00000KT 10SM CLR 10/00 A3014 RMK AO2
KBJC 230412Z AUTO 00000KT 10SM CLR 10/00 A3014 RMK AO2
KBJC 230347Z 00000KT 25SM FEW090 12/01 A3015
KBJC 230247Z 09004KT 25SM FEW090 13/M01 A3013
KBJC 230147Z 04005KT 25SM FEW090 14/00 A3012
KBJC 230047Z 05003KT 25SM FEW090 17/00 A3011
KBJC 230018Z 10005KT 25SM FEW090 17/00 A3012
KBJC 222347Z 36004KT 25SM FEW090 17/00 A3011
KBJC 222250Z 03007KT 25SM FEW090 17/01 A3012
KBJC 222150Z VRB05KT 25SM FEW090 17/01 A3013
KBJC 222050Z 36007KT 20SM FEW090 17/01 A3015
KBJC 221946Z 01006KT 20SM FEW090 16/02 A3017
KBJC 221845Z 00000KT 20SM FEW090 14/02 A3018
KBJC 221754Z 00000KT 20SM FEW090 13/02 A3020
KBJC 221646Z 00000KT 20SM FEW090 10/04 A3020
KBJC 221545Z 00000KT 10SM SKC 08/03 A3019
KBJC 221445Z 00000KT 50SM SKC 05/02 A3019
KBJC 221345Z 00000KT 50SM SKC 04/02 A3018
KBJC 221245Z 00000KT 50SM SKC 01/00 A3016
KBJC 221154Z AUTO 00000KT 10SM CLR 01/00 A3015 RMK AO2
KBJC 221145Z 33003KT 20SM SKC 02/00 A3015
KBJC 221130Z AUTO 33005KT 10SM CLR 01/00 A3015 RMK AO2
KBJC 221112Z AUTO 30004KT 10SM CLR 00/00 A3015 RMK AO2
KBJC 221054Z AUTO 31003KT 10SM CLR 01/00 A3015 RMK AO2
KBJC 221030Z AUTO 32003KT 10SM CLR 01/00 A3016 RMK AO2
KBJC 221012Z AUTO 31003KT 10SM CLR 01/00 A3016 RMK AO2
KBJC 220954Z AUTO 30004KT 10SM CLR 01/00 A3016 RMK AO2
KBJC 220930Z AUTO 00000KT 10SM CLR 01/00 A3015 RMK AO2
KBJC 220912Z AUTO 10006KT 10SM CLR 00/00 A3015 RMK AO2
KBJC 220853Z AUTO 05004KT 10SM CLR 01/00 A3014 RMK AO2
KBJC 220830Z AUTO 25003KT 10SM CLR 01/00 A3014 RMK AO2
KBJC 220812Z AUTO 25008KT 10SM CLR 00/00 A3014 RMK AO2
KBJC 220754Z AUTO 25005KT 7SM CLR 01/00 A3015 RMK AO2
KBJC 220730Z AUTO 00000KT 10SM CLR 02/01 A3015 RMK AO2